Time;durP1;ratioP1;P1;durP2;ratioP2;P2;SDS_P1;SDS_P2;PMS_P1;PMS_P2;Temp;Humidity;BMP_temperature;BMP_pressure;BME280_temperature;BME280_humidity;BME280_pressure;Samples;Min_cycle;Max_cycle;Signal;HPM_P1;HPM_P2
2023/05/01 00:00:47;;;;;;;12.73;6.10;;;;;;;-144.87;100.00;61487.56;4928883;28;20027;-73
2023/05/01 00:03:16;;;;;;;12.30;6.85;;;;;;;-144.87;100.00;61487.56;4961675;28;20038;-73
2023/05/01 00:05:43;;;;;;;15.70;7.22;;;;;;;-144.87;100.00;61487.56;4947554;28;20548;-72
2023/05/01 00:08:10;;;;;;;11.88;6.50;;;;;;;-144.87;100.00;61487.56;4969514;28;20049;-73
2023/05/01 00:10:37;;;;;;;13.18;7.03;;;;;;;-144.87;100.00;61487.56;4948707;28;20047;-72
2023/05/01 00:13:03;;;;;;;16.52;7.38;;;;;;;-144.87;100.00;61487.56;4933869;28;20489;-73
2023/05/01 00:15:31;;;;;;;12.68;6.88;;;;;;;-144.87;100.00;61487.56;4934642;28;20089;-74
2023/05/01 00:17:57;;;;;;;10.43;6.90;;;;;;;-144.87;100.00;61487.56;4948949;28;20571;-73
2023/05/01 00:20:27;;;;;;;13.23;6.68;;;;;;;-144.87;100.00;61487.56;4961044;28;20110;-73
2023/05/01 00:22:54;;;;;;;10.15;5.97;;;;;;;-144.87;100.00;61487.56;4949319;28;20035;-73
2023/05/01 00:25:20;;;;;;;13.82;6.72;;;;;;;-144.87;100.00;61487.56;4949158;28;20740;-73
2023/05/01 00:27:47;;;;;;;9.65;6.68;;;;;;;-144.87;100.00;61487.56;4948762;28;20125;-73
2023/05/01 00:30:14;;;;;;;16.35;7.00;;;;;;;-144.87;100.00;61487.56;4963091;28;20057;-73
2023/05/01 00:32:40;;;;;;;16.15;6.75;;;;;;;-144.87;100.00;61487.56;4967882;28;20050;-73
2023/05/01 00:35:07;;;;;;;13.00;7.00;;;;;;;-144.87;100.00;61487.56;4933860;28;20052;-73
2023/05/01 00:37:33;;;;;;;10.10;7.03;;;;;;;-144.87;100.00;61487.56;4965097;28;20046;-73
2023/05/01 00:39:59;;;;;;;11.05;7.05;;;;;;;-144.87;100.00;61487.56;4920833;28;20046;-74
2023/05/01 00:42:26;;;;;;;11.75;7.40;;;;;;;-144.87;100.00;61487.56;4969838;28;20050;-75
2023/05/01 00:44:52;;;;;;;11.75;6.80;;;;;;;-144.87;100.00;61487.56;4969872;28;20045;-71
2023/05/01 00:47:19;;;;;;;12.45;6.85;;;;;;;-144.87;100.00;61487.56;4938484;28;20039;-74
2023/05/01 00:49:45;;;;;;;11.15;6.63;;;;;;;-144.87;100.00;61487.56;4901683;28;20508;-73
2023/05/01 00:52:12;;;;;;;11.30;6.50;;;;;;;-144.87;100.00;61487.56;4931504;28;20034;-73
2023/05/01 00:54:39;;;;;;;14.35;7.35;;;;;;;-144.87;100.00;61487.56;4968701;28;20078;-73
2023/05/01 00:57:08;;;;;;;18.35;6.93;;;;;;;-144.87;100.00;61487.56;4948474;28;20103;-73
2023/05/01 00:59:35;;;;;;;10.13;6.50;;;;;;;-144.87;100.00;61487.56;4966880;28;20030;-73
2023/05/01 01:02:01;;;;;;;16.48;6.10;;;;;;;-144.87;100.00;61487.56;4932666;28;20030;-72
2023/05/01 01:04:30;;;;;;;17.60;6.38;;;;;;;-144.87;100.00;61487.56;4965627;28;20051;-71
2023/05/01 01:07:24;;;;;;;10.98;5.88;;;;;;;-144.87;100.00;61487.56;4928471;28;20042;-74
2023/05/01 01:10:20;;;;;;;11.07;6.38;;;;;;;-144.87;100.00;61487.56;4970560;28;20030;-73
2023/05/01 01:13:15;;;;;;;11.10;6.90;;;;;;;-144.87;100.00;61487.56;4966594;28;20038;-72
2023/05/01 01:16:04;;;;;;;10.48;6.07;;;;;;;-144.87;100.00;61487.56;4952065;28;20030;-71
2023/05/01 01:19:00;;;;;;;13.02;6.22;;;;;;;-144.87;100.00;61487.56;4947793;28;20042;-72
2023/05/01 01:21:40;;;;;;;11.85;6.53;;;;;;;-144.87;100.00;61487.56;4967615;28;20089;-73
2023/05/01 01:24:30;;;;;;;8.70;6.00;;;;;;;-144.87;100.00;61487.56;4949173;28;20031;-73
2023/05/01 01:27:18;;;;;;;16.75;7.00;;;;;;;-144.87;100.00;61487.56;4953869;28;20162;-73
2023/05/01 01:30:10;;;;;;;10.45;6.15;;;;;;;-144.87;100.00;61487.56;4953163;28;20035;-72
2023/05/01 01:33:00;;;;;;;14.48;6.63;;;;;;;-144.87;100.00;61487.56;4955530;28;20050;-73
2023/05/01 01:35:27;;;;;;;10.30;6.10;;;;;;;-144.87;100.00;61487.56;4975452;28;20085;-72
2023/05/01 01:38:01;;;;;;;13.43;6.50;;;;;;;-144.87;100.00;61487.56;4945607;28;20042;-74
2023/05/01 01:41:03;;;;;;;14.75;6.28;;;;;;;-144.87;100.00;61487.56;4942105;28;20049;-74
2023/05/01 01:43:35;;;;;;;10.35;6.80;;;;;;;-144.87;100.00;61487.56;4973093;28;20030;-72
2023/05/01 01:46:03;;;;;;;13.68;6.90;;;;;;;-144.87;100.00;61487.56;4938937;28;20082;-73
2023/05/01 01:48:41;;;;;;;11.38;7.03;;;;;;;-144.87;100.00;61487.56;4938494;28;20038;-73
2023/05/01 01:51:12;;;;;;;14.95;7.05;;;;;;;-144.87;100.00;61487.56;4950233;28;20034;-72
2023/05/01 01:53:40;;;;;;;12.93;6.80;;;;;;;-144.87;100.00;61487.56;4941828;28;20057;-71
2023/05/01 01:56:07;;;;;;;14.20;6.95;;;;;;;-144.87;100.00;61487.56;4950906;28;20258;-74
2023/05/01 01:58:36;;;;;;;13.07;7.50;;;;;;;-144.87;100.00;61487.56;4935373;28;20081;-74
2023/05/01 02:01:03;;;;;;;16.33;7.10;;;;;;;-144.87;100.00;61487.56;4938596;28;20041;-71
2023/05/01 02:03:31;;;;;;;14.30;6.88;;;;;;;-144.87;100.00;61487.56;4957279;28;20042;-72
2023/05/01 02:05:58;;;;;;;12.65;6.38;;;;;;;-144.87;100.00;61487.56;4977384;28;20038;-72
2023/05/01 02:08:25;;;;;;;9.80;6.38;;;;;;;-144.87;100.00;61487.56;4941617;28;20066;-72
2023/05/01 02:10:56;;;;;;;14.35;7.68;;;;;;;-144.87;100.00;61487.56;4954166;28;20045;-72
2023/05/01 02:13:26;;;;;;;9.32;7.00;;;;;;;-144.87;100.00;61487.56;4951716;28;20033;-72
2023/05/01 02:15:52;;;;;;;12.63;6.43;;;;;;;-144.87;100.00;61487.56;4936456;28;20090;-72
2023/05/01 02:18:20;;;;;;;11.98;6.75;;;;;;;-144.87;100.00;61487.56;4954586;28;20031;-73
2023/05/01 02:20:47;;;;;;;9.32;6.47;;;;;;;-144.87;100.00;61487.56;4955013;28;20061;-72
2023/05/01 02:23:13;;;;;;;15.63;6.50;;;;;;;-144.87;100.00;61487.56;4947192;28;20110;-72
2023/05/01 02:25:40;;;;;;;15.93;7.18;;;;;;;-144.87;100.00;61487.56;4952217;28;20496;-74
2023/05/01 02:28:13;;;;;;;16.23;6.95;;;;;;;-144.87;100.00;61487.56;4929880;28;20104;-71
2023/05/01 02:30:40;;;;;;;11.57;6.28;;;;;;;-144.87;100.00;61487.56;4954229;28;20030;-74
2023/05/01 02:33:07;;;;;;;15.40;6.55;;;;;;;-144.87;100.00;61487.56;4949030;28;20496;-73
2023/05/01 02:35:46;;;;;;;14.55;6.78;;;;;;;-144.87;100.00;61487.56;4938274;28;20070;-72
2023/05/01 02:38:13;;;;;;;16.35;6.60;;;;;;;-144.87;100.00;61487.56;4949446;28;20035;-72
2023/05/01 02:40:45;;;;;;;13.82;6.45;;;;;;;-144.87;100.00;61487.56;4931711;29;20050;-73
2023/05/01 02:43:11;;;;;;;;;;;;;;;-144.87;100.00;61487.56;4948367;29;20111;-71
2023/05/01 02:45:39;;;;;;;13.07;5.47;;;;;;;-144.87;100.00;61487.56;4917066;29;19922;-74
2023/05/01 02:48:07;;;;;;;17.38;6.47;;;;;;;-144.87;100.00;61487.56;4940719;28;20054;-73
2023/05/01 02:50:35;;;;;;;12.38;5.35;;;;;;;-144.87;100.00;61487.56;4917851;29;20122;-74
2023/05/01 02:53:01;;;;;;;9.18;5.40;;;;;;;-144.87;100.00;61487.56;4917481;29;20055;-72
2023/05/01 02:55:38;;;;;;;16.67;5.93;;;;;;;-144.87;100.00;61487.56;4917730;29;20093;-73
2023/05/01 02:58:04;;;;;;;10.23;5.47;;;;;;;-144.87;100.00;61487.56;4918239;29;20043;-71
2023/05/01 03:00:31;;;;;;;12.35;5.45;;;;;;;-144.87;100.00;61487.56;4903718;29;20035;-74
2023/05/01 03:02:57;;;;;;;10.77;5.35;;;;;;;-144.87;100.00;61487.56;4932427;29;20392;-73
2023/05/01 03:05:24;;;;;;;11.60;5.65;;;;;;;-144.87;100.00;61487.56;4949558;29;20042;-73
2023/05/01 03:07:50;;;;;;;9.90;5.43;;;;;;;-144.87;100.00;61487.56;4929933;29;20071;-74
2023/05/01 03:10:17;;;;;;;10.50;5.28;;;;;;;-144.87;100.00;61487.56;4947350;29;20718;-72
2023/05/01 03:12:43;;;;;;;13.32;6.25;;;;;;;-144.87;100.00;61487.56;4914211;29;20051;-72
2023/05/01 03:15:11;;;;;;;12.43;5.78;;;;;;;-144.87;100.00;61487.56;4915341;29;20039;-73
2023/05/01 03:17:37;;;;;;;11.30;5.60;;;;;;;-144.87;100.00;61487.56;4944548;29;20067;-73
2023/05/01 03:20:08;;;;;;;10.80;6.50;;;;;;;-144.87;100.00;61487.56;4930289;29;20033;-72
2023/05/01 03:22:34;;;;;;;13.60;6.22;;;;;;;-144.87;100.00;61487.56;4928189;29;20036;-72
2023/05/01 03:25:01;;;;;;;11.48;6.63;;;;;;;-144.87;100.00;61487.56;4930987;29;20027;-73
2023/05/01 03:27:32;;;;;;;14.35;6.53;;;;;;;-144.87;100.00;61487.56;4927319;29;20039;-73
2023/05/01 03:29:58;;;;;;;14.75;6.50;;;;;;;-144.87;100.00;61487.56;4921191;29;20103;-73
2023/05/01 03:32:28;;;;;;;12.73;6.20;;;;;;;-144.87;100.00;61487.56;4901699;29;20037;-74
2023/05/01 03:34:54;;;;;;;15.52;6.28;;;;;;;-144.87;100.00;61487.56;4930002;29;20073;-73
2023/05/01 03:37:21;;;;;;;9.32;6.47;;;;;;;-144.87;100.00;61487.56;4911759;29;20067;-73
2023/05/01 03:39:48;;;;;;;14.38;6.60;;;;;;;-144.87;100.00;61487.56;4942591;28;20146;-74
2023/05/01 03:42:33;;;;;;;17.85;7.07;;;;;;;-144.87;100.00;61487.56;4954732;28;20531;-75
2023/05/01 03:45:07;;;;;;;12.27;5.88;;;;;;;-144.87;100.00;61487.56;4939085;28;20124;-72
2023/05/01 03:47:33;;;;;;;11.10;5.50;;;;;;;-144.87;100.00;61487.56;4952251;28;20034;-73
2023/05/01 03:50:00;;;;;;;10.40;6.45;;;;;;;-144.87;100.00;61487.56;4936264;28;20090;-73
2023/05/01 03:52:27;;;;;;;15.75;6.30;;;;;;;-144.87;100.00;61487.56;4950432;28;20042;-73
2023/05/01 03:54:56;;;;;;;11.05;6.05;;;;;;;-144.87;100.00;61487.56;4950503;28;20504;-74
2023/05/01 03:57:32;;;;;;;13.57;6.78;;;;;;;-144.87;100.00;61487.56;4949064;28;20041;-74
2023/05/01 03:59:59;;;;;;;15.77;8.18;;;;;;;-144.87;100.00;61487.56;4935342;28;20033;-73
2023/05/01 04:02:26;;;;;;;12.80;6.93;;;;;;;-144.87;100.00;61487.56;4934127;28;20066;-74
2023/05/01 04:04:53;;;;;;;13.73;7.20;;;;;;;-144.87;100.00;61487.56;4934897;28;20030;-74
2023/05/01 04:07:19;;;;;;;13.35;6.75;;;;;;;-144.87;100.00;61487.56;4952290;28;20421;-73
2023/05/01 04:09:48;;;;;;;12.93;6.93;;;;;;;-144.87;100.00;61487.56;4919257;28;20042;-75
2023/05/01 04:12:14;;;;;;;17.95;7.63;;;;;;;-144.87;100.00;61487.56;4948785;28;20051;-74
2023/05/01 04:14:43;;;;;;;14.60;7.20;;;;;;;-144.87;100.00;61487.56;4967937;28;20467;-73
2023/05/01 04:17:10;;;;;;;14.65;6.97;;;;;;;-144.87;100.00;61487.56;4934963;28;20051;-74
2023/05/01 04:19:39;;;;;;;18.52;6.95;;;;;;;-144.87;100.00;61487.56;4929867;28;20118;-73
2023/05/01 04:22:06;;;;;;;20.42;7.82;;;;;;;-144.87;100.00;61487.56;4922622;28;20057;-74
2023/05/01 04:24:35;;;;;;;16.92;7.13;;;;;;;-144.87;100.00;61487.56;4917304;28;20571;-73
2023/05/01 04:27:01;;;;;;;13.30;7.13;;;;;;;-144.87;100.00;61487.56;4932675;28;20039;-72
2023/05/01 04:29:28;;;;;;;15.30;7.63;;;;;;;-144.87;100.00;61487.56;4950480;28;20077;-72
2023/05/01 04:31:55;;;;;;;16.27;8.13;;;;;;;-144.87;100.00;61487.56;4960267;28;20208;-72
2023/05/01 04:34:22;;;;;;;13.90;7.07;;;;;;;-144.87;100.00;61487.56;4963757;28;20054;-74
2023/05/01 04:36:48;;;;;;;15.23;7.43;;;;;;;-144.87;100.00;61487.56;4951885;28;20144;-74
2023/05/01 04:39:15;;;;;;;12.65;7.38;;;;;;;-144.87;100.00;61487.56;4933289;28;20516;-72
2023/05/01 04:41:41;;;;;;;15.63;7.50;;;;;;;-144.87;100.00;61487.56;4958830;28;20042;-73
2023/05/01 04:44:08;;;;;;;14.65;7.90;;;;;;;-144.87;100.00;61487.56;4947261;28;20063;-72
2023/05/01 04:46:34;;;;;;;15.50;7.90;;;;;;;-144.87;100.00;61487.56;4949893;28;20058;-73
2023/05/01 04:49:01;;;;;;;14.02;7.55;;;;;;;-144.87;100.00;61487.56;4947944;28;20081;-73
2023/05/01 04:51:27;;;;;;;12.73;6.93;;;;;;;-144.87;100.00;61487.56;4966341;28;20069;-73
2023/05/01 04:53:54;;;;;;;20.00;7.55;;;;;;;-144.87;100.00;61487.56;4957265;28;20046;-74
2023/05/01 04:56:25;;;;;;;21.40;7.20;;;;;;;-144.87;100.00;61487.56;4936338;28;20065;-72
2023/05/01 04:58:55;;;;;;;17.95;8.05;;;;;;;-144.87;100.00;61487.56;4932162;28;20059;-73
2023/05/01 05:01:24;;;;;;;14.07;7.53;;;;;;;-144.87;100.00;61487.56;4939071;28;20039;-73
2023/05/01 05:03:51;;;;;;;13.32;7.20;;;;;;;-144.87;100.00;61487.56;4931431;28;20050;-73
2023/05/01 05:06:17;;;;;;;19.17;8.02;;;;;;;-144.87;100.00;61487.56;4928306;28;20043;-73
2023/05/01 05:08:43;;;;;;;16.90;8.13;;;;;;;-144.87;100.00;61487.56;4932597;28;20034;-73
2023/05/01 05:11:10;;;;;;;13.55;7.50;;;;;;;-144.87;100.00;61487.56;4948953;28;20069;-73
2023/05/01 05:13:55;;;;;;;15.95;7.60;;;;;;;-144.87;100.00;61487.56;4965900;28;20057;-72
2023/05/01 05:16:22;;;;;;;15.40;7.47;;;;;;;-144.87;100.00;61487.56;4967813;28;20034;-72
2023/05/01 05:18:48;;;;;;;23.98;8.00;;;;;;;-144.87;100.00;61487.56;4965050;28;20109;-73
2023/05/01 05:21:14;;;;;;;13.63;7.35;;;;;;;-144.87;100.00;61487.56;4969227;28;20070;-73
2023/05/01 05:23:47;;;;;;;16.08;7.13;;;;;;;-144.87;100.00;61487.56;4948170;28;20429;-73
2023/05/01 05:26:13;;;;;;;14.02;7.07;;;;;;;-144.87;100.00;61487.56;4945256;28;20050;-74
2023/05/01 05:28:40;;;;;;;14.00;7.03;;;;;;;-144.87;100.00;61487.56;4942662;28;20045;-73
2023/05/01 05:31:07;;;;;;;11.60;7.10;;;;;;;-144.87;100.00;61487.56;4949750;28;20500;-74
2023/05/01 05:33:34;;;;;;;17.55;7.65;;;;;;;-144.87;100.00;61487.56;4930549;28;20035;-74
2023/05/01 05:36:01;;;;;;;11.55;6.97;;;;;;;-144.87;100.00;61487.56;4950300;28;20030;-73
2023/05/01 05:38:33;;;;;;;16.60;7.43;;;;;;;-144.87;100.00;61487.56;4931329;28;20035;-73
2023/05/01 05:41:00;;;;;;;15.60;7.43;;;;;;;-144.87;100.00;61487.56;4945333;28;20035;-72
2023/05/01 05:43:27;;;;;;;12.73;7.45;;;;;;;-144.87;100.00;61487.56;4951120;28;20031;-73
2023/05/01 05:45:57;;;;;;;16.08;7.15;;;;;;;-144.87;100.00;61487.56;4951259;28;20046;-74
2023/05/01 05:48:24;;;;;;;12.77;7.03;;;;;;;-144.87;100.00;61487.56;4930542;28;20043;-74
2023/05/01 05:50:51;;;;;;;18.45;7.75;;;;;;;-144.87;100.00;61487.56;4932350;28;20111;-71
2023/05/01 05:53:19;;;;;;;13.52;6.53;;;;;;;-144.87;100.00;61487.56;4914135;28;20559;-72
2023/05/01 05:55:46;;;;;;;11.15;6.90;;;;;;;-144.87;100.00;61487.56;4932780;28;20110;-72
2023/05/01 05:58:18;;;;;;;19.17;7.10;;;;;;;-144.87;100.00;61487.56;4957531;28;20031;-74
2023/05/01 06:00:47;;;;;;;11.10;6.57;;;;;;;-144.87;100.00;61487.56;4948229;28;20038;-73
2023/05/01 06:03:14;;;;;;;12.35;7.13;;;;;;;-144.87;100.00;61487.56;4949628;28;20177;-73
2023/05/01 06:05:42;;;;;;;11.65;7.18;;;;;;;-144.87;100.00;61487.56;4947963;28;20404;-72
2023/05/01 06:08:11;;;;;;;16.17;7.40;;;;;;;-144.87;100.00;61487.56;4959019;28;20038;-73
2023/05/01 06:10:40;;;;;;;17.42;8.57;;;;;;;-144.87;100.00;61487.56;4966415;28;20039;-72
2023/05/01 06:13:10;;;;;;;16.63;7.10;;;;;;;-144.87;100.00;61487.56;4957091;28;20038;-72
2023/05/01 06:15:37;;;;;;;22.25;7.85;;;;;;;-144.87;100.00;61487.56;4952370;28;20081;-72
2023/05/01 06:18:04;;;;;;;23.58;8.90;;;;;;;-144.87;100.00;61487.56;4957147;28;20121;-72
2023/05/01 06:20:30;;;;;;;12.57;7.22;;;;;;;-144.87;100.00;61487.56;4953035;28;20512;-73
2023/05/01 06:22:57;;;;;;;17.50;7.47;;;;;;;-144.87;100.00;61487.56;4953005;28;20095;-72
2023/05/01 06:25:32;;;;;;;17.00;8.00;;;;;;;-144.87;100.00;61487.56;4950969;28;20034;-72
2023/05/01 06:27:59;;;;;;;16.85;7.35;;;;;;;-144.87;100.00;61487.56;4936618;28;20050;-73
2023/05/01 06:30:25;;;;;;;12.57;6.82;;;;;;;-144.87;100.00;61487.56;4952504;28;20035;-73
2023/05/01 06:32:51;;;;;;;17.90;7.63;;;;;;;-144.87;100.00;61487.56;4950072;28;20077;-72
2023/05/01 06:35:19;;;;;;;14.00;7.70;;;;;;;-144.87;100.00;61487.56;4952824;28;20389;-73
2023/05/01 06:37:46;;;;;;;15.70;7.18;;;;;;;-144.87;100.00;61487.56;4951933;28;20069;-72
2023/05/01 06:40:12;;;;;;;17.80;7.63;;;;;;;-144.87;100.00;61487.56;4953888;28;20042;-73
2023/05/01 06:42:39;;;;;;;13.32;7.25;;;;;;;-144.87;100.00;61487.56;4959631;28;20317;-73
2023/05/01 06:45:07;;;;;;;18.63;7.80;;;;;;;-144.87;100.00;61487.56;4957317;28;20061;-75
2023/05/01 06:47:34;;;;;;;16.02;8.20;;;;;;;-144.87;100.00;61487.56;4940596;28;20110;-72
2023/05/01 06:50:01;;;;;;;15.18;8.07;;;;;;;-144.87;100.00;61487.56;4949984;28;20046;-73
2023/05/01 06:52:27;;;;;;;18.48;8.43;;;;;;;-144.87;100.00;61487.56;4948482;28;20046;-72
2023/05/01 06:54:53;;;;;;;17.55;7.57;;;;;;;-144.87;100.00;61487.56;4948242;28;20039;-72
2023/05/01 06:57:20;;;;;;;14.65;7.22;;;;;;;-144.87;100.00;61487.56;4950614;28;20047;-72
2023/05/01 06:59:46;;;;;;;18.58;8.13;;;;;;;-144.87;100.00;61487.56;4951576;28;20053;-72
2023/05/01 07:02:12;;;;;;;13.63;6.97;;;;;;;-144.87;100.00;61487.56;4951384;28;20039;-73
2023/05/01 07:04:39;;;;;;;16.00;7.72;;;;;;;-144.87;100.00;61487.56;4953180;28;20125;-73
2023/05/01 07:07:05;;;;;;;18.40;8.82;;;;;;;-144.87;100.00;61487.56;4952601;28;20039;-73
2023/05/01 07:09:31;;;;;;;21.45;8.05;;;;;;;-144.87;100.00;61487.56;4963171;28;20578;-72
2023/05/01 07:11:58;;;;;;;12.93;7.90;;;;;;;-144.87;100.00;61487.56;4964825;28;20126;-74
2023/05/01 07:14:24;;;;;;;12.90;7.38;;;;;;;-144.87;100.00;61487.56;4952022;28;20369;-73
2023/05/01 07:16:50;;;;;;;17.55;7.80;;;;;;;-144.87;100.00;61487.56;4949855;28;20050;-73
2023/05/01 07:19:17;;;;;;;13.85;7.65;;;;;;;-144.87;100.00;61487.56;4968054;28;20190;-72
2023/05/01 07:21:43;;;;;;;16.42;7.13;;;;;;;-144.87;100.00;61487.56;4968619;28;20101;-72
2023/05/01 07:24:11;;;;;;;15.90;7.47;;;;;;;-144.87;100.00;61487.56;4950455;28;20043;-72
2023/05/01 07:26:37;;;;;;;14.82;7.93;;;;;;;-144.87;100.00;61487.56;4951037;28;20050;-73
2023/05/01 07:29:04;;;;;;;15.02;7.65;;;;;;;-144.87;100.00;61487.56;4950643;28;20505;-72
2023/05/01 07:31:30;;;;;;;14.88;8.02;;;;;;;-144.87;100.00;61487.56;4948141;28;20039;-73
2023/05/01 07:33:56;;;;;;;19.20;8.43;;;;;;;-144.87;100.00;61487.56;4963416;28;20403;-73
2023/05/01 07:36:23;;;;;;;13.88;7.68;;;;;;;-144.87;100.00;61487.56;4965902;28;20058;-73
2023/05/01 07:38:49;;;;;;;16.20;7.28;;;;;;;-144.87;100.00;61487.56;4952434;28;20702;-74
2023/05/01 07:41:15;;;;;;;17.98;8.07;;;;;;;-144.87;100.00;61487.56;4950898;28;20039;-74
2023/05/01 07:43:42;;;;;;;20.63;7.70;;;;;;;-144.87;100.00;61487.56;4965553;28;20093;-74
2023/05/01 07:46:08;;;;;;;16.58;8.43;;;;;;;-144.87;100.00;61487.56;4969183;28;20042;-74
2023/05/01 07:48:35;;;;;;;13.25;7.43;;;;;;;-144.87;100.00;61487.56;4936230;28;20661;-75
2023/05/01 07:51:03;;;;;;;14.73;7.47;;;;;;;-144.87;100.00;61487.56;4951447;28;20043;-74
2023/05/01 07:53:29;;;;;;;12.10;7.40;;;;;;;-144.87;100.00;61487.56;4949498;28;20043;-73
2023/05/01 07:56:05;;;;;;;10.60;7.10;;;;;;;-144.87;100.00;61487.56;4932619;28;20050;-74
2023/05/01 07:58:32;;;;;;;11.73;6.75;;;;;;;-144.87;100.00;61487.56;4959382;28;20042;-74
2023/05/01 08:00:58;;;;;;;16.92;6.55;;;;;;;-144.87;100.00;61487.56;4962824;28;20098;-73
2023/05/01 08:03:26;;;;;;;11.75;6.43;;;;;;;-144.87;100.00;61487.56;4932289;28;20468;-73
2023/05/01 08:05:53;;;;;;;17.85;7.32;;;;;;;-144.87;100.00;61487.56;4946386;28;20046;-74
2023/05/01 08:08:20;;;;;;;14.32;7.75;;;;;;;-144.87;100.00;61487.56;4935550;28;20035;-72
2023/05/01 08:10:47;;;;;;;15.50;7.28;;;;;;;-144.87;100.00;61487.56;4952054;28;20121;-73
2023/05/01 08:13:13;;;;;;;17.60;7.72;;;;;;;-144.87;100.00;61487.56;4959982;28;20043;-72
2023/05/01 08:15:41;;;;;;;10.63;6.55;;;;;;;-144.87;100.00;61487.56;4970617;28;20038;-72
2023/05/01 08:18:11;;;;;;;14.82;6.82;;;;;;;-144.87;100.00;61487.56;4950251;28;20043;-73
2023/05/01 08:20:37;;;;;;;11.30;6.50;;;;;;;-144.87;100.00;61487.56;4948711;28;20032;-74
2023/05/01 08:23:04;;;;;;;9.63;6.72;;;;;;;-144.87;100.00;61487.56;4966932;28;20171;-74
2023/05/01 08:25:31;;;;;;;12.32;6.30;;;;;;;-144.87;100.00;61487.56;4963961;28;20114;-72
2023/05/01 08:27:57;;;;;;;11.48;6.72;;;;;;;-144.87;100.00;61487.56;4947556;28;20058;-72
2023/05/01 08:30:25;;;;;;;15.75;7.40;;;;;;;-144.87;100.00;61487.56;4949113;28;20032;-72
2023/05/01 08:32:51;;;;;;;10.25;6.38;;;;;;;-144.87;100.00;61487.56;4944098;28;20038;-73
2023/05/01 08:35:17;;;;;;;15.10;7.43;;;;;;;-144.87;100.00;61487.56;4967654;28;20139;-72
2023/05/01 08:37:44;;;;;;;15.88;7.05;;;;;;;-144.87;100.00;61487.56;4928764;28;20035;-72
2023/05/01 08:40:11;;;;;;;13.98;6.72;;;;;;;-144.87;100.00;61487.56;4968174;28;20053;-73
2023/05/01 08:42:37;;;;;;;13.77;6.75;;;;;;;-144.87;100.00;61487.56;4947517;28;20042;-72
2023/05/01 08:45:10;;;;;;;19.23;6.60;;;;;;;-144.87;100.00;61487.56;4945995;28;20169;-72
2023/05/01 08:47:38;;;;;;;12.57;6.65;;;;;;;-144.87;100.00;61487.56;4964791;28;20410;-73
2023/05/01 08:50:10;;;;;;;14.07;6.60;;;;;;;-144.87;100.00;61487.56;4965796;28;20117;-73
2023/05/01 08:52:41;;;;;;;11.88;6.28;;;;;;;-144.87;100.00;61487.56;4958936;28;20035;-72
2023/05/01 08:55:11;;;;;;;13.98;6.95;;;;;;;-144.87;100.00;61487.56;4967537;28;20067;-72
2023/05/01 08:57:37;;;;;;;13.80;6.83;;;;;;;-144.87;100.00;61487.56;4945398;28;20092;-72
2023/05/01 09:00:04;;;;;;;13.43;6.53;;;;;;;-144.87;100.00;61487.56;4961625;28;20202;-72
2023/05/01 09:02:33;;;;;;;12.43;6.97;;;;;;;-144.87;100.00;61487.56;4933612;28;20038;-72
2023/05/01 09:05:00;;;;;;;14.18;6.95;;;;;;;-144.87;100.00;61487.56;4966611;28;20106;-72
2023/05/01 09:07:27;;;;;;;12.25;6.47;;;;;;;-144.87;100.00;61487.56;4935113;28;20045;-72
2023/05/01 09:09:53;;;;;;;15.38;6.20;;;;;;;-144.87;100.00;61487.56;4945835;28;20289;-73
2023/05/01 09:12:26;;;;;;;15.15;6.95;;;;;;;-144.87;100.00;61487.56;4954442;28;20105;-73
2023/05/01 09:14:53;;;;;;;11.85;6.82;;;;;;;-144.87;100.00;61487.56;4963273;28;20042;-73
2023/05/01 09:17:20;;;;;;;12.68;6.25;;;;;;;-144.87;100.00;61487.56;4964511;28;20074;-72
2023/05/01 09:19:47;;;;;;;11.18;6.40;;;;;;;-144.87;100.00;61487.56;4942935;28;20039;-73
2023/05/01 09:22:14;;;;;;;14.85;7.15;;;;;;;-144.87;100.00;61487.56;4942911;28;20031;-73
2023/05/01 09:24:41;;;;;;;14.18;6.28;;;;;;;-144.87;100.00;61487.56;4942108;28;20042;-75
2023/05/01 09:27:07;;;;;;;18.95;6.38;;;;;;;-144.87;100.00;61487.56;4964982;28;20129;-73
2023/05/01 09:29:38;;;;;;;11.35;6.45;;;;;;;-144.87;100.00;61487.56;4967412;28;20038;-72
2023/05/01 09:32:14;;;;;;;12.73;5.63;;;;;;;-144.87;100.00;61487.56;4967329;28;20317;-73
2023/05/01 09:34:42;;;;;;;12.55;6.28;;;;;;;-144.87;100.00;61487.56;4968206;28;20048;-72
2023/05/01 09:37:29;;;;;;;10.63;5.57;;;;;;;-144.87;100.00;61487.56;4955391;28;20027;-73
2023/05/01 09:40:12;;;;;;;11.63;5.47;;;;;;;-144.87;100.00;61487.56;4946496;28;20072;-72
2023/05/01 09:42:40;;;;;;;12.57;5.90;;;;;;;-144.87;100.00;61487.56;4942150;28;20118;-72
2023/05/01 09:45:15;;;;;;;12.48;5.30;;;;;;;-144.87;100.00;61487.56;4945418;28;20105;-73
2023/05/01 09:47:42;;;;;;;12.93;5.18;;;;;;;-144.87;100.00;61487.56;4944985;28;20049;-73
2023/05/01 09:50:10;;;;;;;9.60;5.15;;;;;;;-144.87;100.00;61487.56;4952727;28;20440;-78
2023/05/01 09:52:36;;;;;;;10.68;5.55;;;;;;;-144.87;100.00;61487.56;4949551;28;20039;-72
2023/05/01 09:55:16;;;;;;;11.73;5.35;;;;;;;-144.87;100.00;61487.56;4968324;28;20043;-74
2023/05/01 09:57:44;;;;;;;16.30;6.32;;;;;;;-144.87;100.00;61487.56;4931069;28;20105;-72
2023/05/01 10:00:13;;;;;;;14.75;6.00;;;;;;;-144.87;100.00;61487.56;4954238;28;20113;-72
2023/05/01 10:02:40;;;;;;;10.38;5.75;;;;;;;-144.87;100.00;61487.56;4966154;28;20153;-72
2023/05/01 10:05:09;;;;;;;13.52;5.90;;;;;;;-144.87;100.00;61487.56;4968039;28;20058;-73
2023/05/01 10:07:35;;;;;;;14.88;6.93;;;;;;;-144.87;100.00;61487.56;4950391;28;20039;-73
2023/05/01 10:10:21;;;;;;;11.35;5.65;;;;;;;-144.87;100.00;61487.56;4951193;28;20042;-73
2023/05/01 10:12:48;;;;;;;11.60;5.70;;;;;;;-144.87;100.00;61487.56;4956373;28;20033;-72
2023/05/01 10:15:15;;;;;;;9.63;5.88;;;;;;;-144.87;100.00;61487.56;4948520;28;20085;-73
2023/05/01 10:17:43;;;;;;;8.98;5.00;;;;;;;-144.87;100.00;61487.56;4947760;28;20034;-73
2023/05/01 10:20:11;;;;;;;9.07;4.88;;;;;;;-144.87;100.00;61487.56;4950144;28;20403;-73
2023/05/01 10:22:38;;;;;;;14.45;5.20;;;;;;;-144.87;100.00;61487.56;4947861;28;20400;-73
2023/05/01 10:25:11;;;;;;;9.60;5.20;;;;;;;-144.87;100.00;61487.56;4952326;28;20039;-72
2023/05/01 10:27:39;;;;;;;13.45;5.88;;;;;;;-144.87;100.00;61487.56;4949849;28;20061;-72
2023/05/01 10:30:06;;;;;;;11.82;5.70;;;;;;;-144.87;100.00;61487.56;4945777;28;20197;-73
2023/05/01 10:32:33;;;;;;;11.13;6.00;;;;;;;-144.87;100.00;61487.56;4969318;28;20050;-73
2023/05/01 10:35:10;;;;;;;15.13;7.05;;;;;;;-144.87;100.00;61487.56;4955053;28;20049;-73
2023/05/01 10:37:47;;;;;;;14.52;6.63;;;;;;;-144.87;100.00;61487.56;4954244;28;20484;-72
2023/05/01 10:40:38;;;;;;;13.77;6.53;;;;;;;-144.87;100.00;61487.56;4936079;28;20477;-72
2023/05/01 10:43:29;;;;;;;15.45;6.47;;;;;;;-144.87;100.00;61487.56;4936645;28;20121;-72
2023/05/01 10:46:15;;;;;;;13.00;6.68;;;;;;;-144.87;100.00;61487.56;4966499;28;20035;-72
2023/05/01 10:48:42;;;;;;;17.95;7.05;;;;;;;-144.87;100.00;61487.56;4969238;28;20038;-71
2023/05/01 10:51:16;;;;;;;13.50;7.00;;;;;;;-144.87;100.00;61487.56;4970196;28;20030;-72
2023/05/01 10:53:47;;;;;;;12.15;6.35;;;;;;;-144.87;100.00;61487.56;4964750;28;20035;-72
2023/05/01 10:56:24;;;;;;;12.48;6.40;;;;;;;-144.87;100.00;61487.56;4948784;28;20034;-72
2023/05/01 10:58:56;;;;;;;9.75;5.78;;;;;;;-144.87;100.00;61487.56;4980329;28;20047;-73
2023/05/01 11:01:59;;;;;;;11.80;6.00;;;;;;;-144.87;100.00;61487.56;4962128;28;20042;-72
2023/05/01 11:04:28;;;;;;;8.32;5.20;;;;;;;-144.87;100.00;61487.56;4940494;28;20445;-73
2023/05/01 11:07:01;;;;;;;13.95;5.50;;;;;;;-144.87;100.00;61487.56;4963904;28;20087;-72
2023/05/01 11:09:38;;;;;;;13.07;5.45;;;;;;;-144.87;100.00;61487.56;4971837;28;20035;-72
2023/05/01 11:12:05;;;;;;;16.05;5.15;;;;;;;-144.87;100.00;61487.56;4979975;28;20038;-72